Skip Navigation LinksHome page > Weather > Current weather Skip Navigation Links

Current Weather

Ben-Gurion Intl Apt, Tel Aviv, Israel

For information only: do not use for flight planning or navigation.
Latest weather
Observation time Monday, May 22, 2017 6:20 PM IDT
Local time Monday, May 22, 2017 6:41 PM IDT
Flight conditions Visual Meteorological Conditions
Winds
Wind direction West-Northwest (290°)
Wind speed 9 mph
Visibility 6.2 mi.
Sky condition
Ceiling unlimited
Sky clear
Temperature 84°F
Dewpoint 45°F
Altimeter 29.77 in.Hg
Derived measurements
Relative humidity 25%
Heat index 84°F
Density altitude 2092 ft.
Remarks
Ceiling and visibility OK.
No significant changes expected in the next two hours.
METAR LLBG 221520Z 29008KT CAVOK 29/07 Q1008 NOSIG

Settings

Location code

InnerDrive.Weather 4.0.6144.1 Release CLR 4.0.30319.36366
Copyright ©2015 Inner Drive Technology. All rights reserved. Portions Copyright ©1986-2015 David Braverman.

Find weather

Site navigation


Skip Navigation Links

Place info

Page info

PayPal - The safer, easier way to pay online!

Return home.

Copyright ©2017 Inner Drive Technology. Purveyors of fine, hand-crafted computer software. Page printed 2017-05-22T15:41:11 UTC.